createdAt,value
2018-07-28T00:01:00.000Z,98284
2018-07-28T00:06:00.000Z,98277
2018-07-28T00:11:00.000Z,98274
2018-07-28T00:16:00.000Z,98269
2018-07-28T00:21:00.000Z,98268
2018-07-28T00:26:00.000Z,98269
2018-07-28T00:31:00.000Z,98269
2018-07-28T00:36:00.000Z,98276
2018-07-28T00:41:00.000Z,98281
2018-07-28T00:47:00.000Z,98279
2018-07-28T00:52:00.000Z,98270
2018-07-28T00:57:00.000Z,98263
2018-07-28T01:02:00.000Z,98263
2018-07-28T01:07:00.000Z,98247
2018-07-28T01:12:00.000Z,98260
2018-07-28T01:17:00.000Z,98257
2018-07-28T01:22:00.000Z,98258
2018-07-28T01:27:00.000Z,98253
2018-07-28T01:32:00.000Z,98247
2018-07-28T01:37:00.000Z,98250
2018-07-28T01:42:00.000Z,98241
2018-07-28T01:47:00.000Z,98224
2018-07-28T01:52:00.000Z,98229
2018-07-28T01:57:00.000Z,98220
2018-07-28T02:02:00.000Z,98224
2018-07-28T02:07:00.000Z,98230
2018-07-28T02:12:00.000Z,98218
2018-07-28T02:17:00.000Z,98201
2018-07-28T02:22:00.000Z,98205
2018-07-28T02:27:00.000Z,98209
2018-07-28T02:32:00.000Z,98214
2018-07-28T02:37:00.000Z,98203
2018-07-28T02:42:00.000Z,98205
2018-07-28T02:47:00.000Z,98201
2018-07-28T02:52:00.000Z,98203
2018-07-28T02:57:00.000Z,98202
2018-07-28T03:02:00.000Z,98210
2018-07-28T03:07:00.000Z,98210
2018-07-28T03:12:00.000Z,98211
2018-07-28T03:17:00.000Z,98212
2018-07-28T03:22:00.000Z,98210
2018-07-28T03:27:00.000Z,98218
2018-07-28T03:32:00.000Z,98224
2018-07-28T03:37:00.000Z,98220
2018-07-28T03:42:00.000Z,98227
2018-07-28T03:47:00.000Z,98219
2018-07-28T03:52:00.000Z,98223
2018-07-28T03:57:00.000Z,98209
2018-07-28T04:02:00.000Z,98207
2018-07-28T04:07:00.000Z,98218
2018-07-28T04:12:00.000Z,98215
2018-07-28T04:17:00.000Z,98218
2018-07-28T04:22:00.000Z,98207
2018-07-28T04:27:00.000Z,98216
2018-07-28T04:32:00.000Z,98212
2018-07-28T04:37:00.000Z,98221
2018-07-28T04:42:00.000Z,98226
2018-07-28T04:47:00.000Z,98239
2018-07-28T04:52:00.000Z,98235
2018-07-28T04:57:00.000Z,98247
2018-07-28T05:02:00.000Z,98230
2018-07-28T05:07:00.000Z,98230
2018-07-28T05:12:00.000Z,98239
2018-07-28T05:17:00.000Z,98236
2018-07-28T05:22:00.000Z,98227
2018-07-28T05:27:00.000Z,98228
2018-07-28T05:32:00.000Z,98215
2018-07-28T05:37:00.000Z,98220
2018-07-28T05:42:00.000Z,98212
2018-07-28T05:47:00.000Z,98208
2018-07-28T05:52:00.000Z,98205
2018-07-28T05:57:00.000Z,98200
2018-07-28T06:02:00.000Z,98208
2018-07-28T06:07:00.000Z,98211
2018-07-28T06:12:00.000Z,98215
2018-07-28T06:17:00.000Z,98215
2018-07-28T06:22:00.000Z,98215
2018-07-28T06:27:00.000Z,98228
2018-07-28T06:32:00.000Z,98223
2018-07-28T06:37:00.000Z,98229
2018-07-28T06:42:00.000Z,98233
2018-07-28T06:47:00.000Z,98229
2018-07-28T06:53:00.000Z,98237
2018-07-28T06:58:00.000Z,98230
2018-07-28T07:03:00.000Z,98233
2018-07-28T07:08:00.000Z,98227
2018-07-28T07:13:00.000Z,98235
2018-07-28T07:18:00.000Z,98240
2018-07-28T07:23:00.000Z,98245
2018-07-28T07:28:00.000Z,98245
2018-07-28T07:33:00.000Z,98247
2018-07-28T07:38:00.000Z,98250
2018-07-28T07:43:00.000Z,98252
2018-07-28T07:48:00.000Z,98256
2018-07-28T07:53:00.000Z,98261
2018-07-28T07:58:00.000Z,98270
2018-07-28T08:03:00.000Z,98262
2018-07-28T08:08:00.000Z,98264
2018-07-28T08:13:00.000Z,98263
2018-07-28T08:18:00.000Z,98261
2018-07-28T08:23:00.000Z,98266
2018-07-28T08:28:00.000Z,98263
2018-07-28T08:33:00.000Z,98265
2018-07-28T08:38:00.000Z,98270
2018-07-28T08:43:00.000Z,98271
2018-07-28T08:48:00.000Z,98265
2018-07-28T08:53:00.000Z,98268
2018-07-28T08:58:00.000Z,98273
2018-07-28T09:03:00.000Z,98273
2018-07-28T09:08:00.000Z,98273
2018-07-28T09:13:00.000Z,98279
2018-07-28T09:18:00.000Z,98274
2018-07-28T09:23:00.000Z,98276
2018-07-28T09:28:00.000Z,98279
2018-07-28T09:33:00.000Z,98275
2018-07-28T09:38:00.000Z,98268
2018-07-28T09:43:00.000Z,98271
2018-07-28T09:48:00.000Z,98265
2018-07-28T09:53:00.000Z,98271
2018-07-28T09:58:00.000Z,98270
2018-07-28T10:03:00.000Z,98261
2018-07-28T10:08:00.000Z,98263
2018-07-28T10:13:00.000Z,98269
2018-07-28T10:18:00.000Z,98263
2018-07-28T10:23:00.000Z,98263
2018-07-28T10:28:00.000Z,98259
2018-07-28T10:33:00.000Z,98254
2018-07-28T10:38:00.000Z,98254
2018-07-28T10:43:00.000Z,98245
2018-07-28T10:48:00.000Z,98249
2018-07-28T10:53:00.000Z,98252
2018-07-28T10:58:00.000Z,98248
2018-07-28T11:03:00.000Z,98242
2018-07-28T11:08:00.000Z,98243
2018-07-28T11:13:00.000Z,98229
2018-07-28T11:18:00.000Z,98227
2018-07-28T11:23:00.000Z,98223
2018-07-28T11:28:00.000Z,98216
2018-07-28T11:33:00.000Z,98216
2018-07-28T11:38:00.000Z,98221
2018-07-28T11:43:00.000Z,98217
2018-07-28T11:48:00.000Z,98209
2018-07-28T11:53:00.000Z,98210
2018-07-28T11:58:00.000Z,98206
2018-07-28T12:03:00.000Z,98200
2018-07-28T12:08:00.000Z,98201
2018-07-28T12:13:00.000Z,98205
2018-07-28T12:18:00.000Z,98206
2018-07-28T12:23:00.000Z,98206
2018-07-28T12:28:00.000Z,98206
2018-07-28T12:33:00.000Z,98203
2018-07-28T12:38:00.000Z,98210
2018-07-28T12:43:00.000Z,98198
2018-07-28T12:48:00.000Z,98199
2018-07-28T12:54:00.000Z,98201
2018-07-28T12:59:00.000Z,98185
2018-07-28T13:04:00.000Z,98181
2018-07-28T13:09:00.000Z,98173
2018-07-28T13:14:00.000Z,98175
2018-07-28T13:19:00.000Z,98177
2018-07-28T13:24:00.000Z,98171
2018-07-28T13:29:00.000Z,98168
2018-07-28T13:34:00.000Z,98171
2018-07-28T13:39:00.000Z,98175
2018-07-28T13:44:00.000Z,98180
2018-07-28T13:49:00.000Z,98178
2018-07-28T13:54:00.000Z,98171
2018-07-28T13:59:00.000Z,98168
2018-07-28T14:04:00.000Z,98174
2018-07-28T14:09:00.000Z,98179
2018-07-28T14:14:00.000Z,98178
2018-07-28T14:19:00.000Z,98192
2018-07-28T14:24:00.000Z,98180
2018-07-28T14:29:00.000Z,98188
2018-07-28T14:34:00.000Z,98194
2018-07-28T14:39:00.000Z,98186
2018-07-28T14:44:00.000Z,98184
2018-07-28T14:49:00.000Z,98187
2018-07-28T14:54:00.000Z,98192
2018-07-28T14:59:00.000Z,98186
2018-07-28T15:04:00.000Z,98191
2018-07-28T15:09:00.000Z,98181
2018-07-28T15:14:00.000Z,98180
2018-07-28T15:19:00.000Z,98184
2018-07-28T15:24:00.000Z,98183
2018-07-28T15:29:00.000Z,98179
2018-07-28T15:34:00.000Z,98166
2018-07-28T15:39:00.000Z,98163
2018-07-28T15:44:00.000Z,98163
2018-07-28T15:49:00.000Z,98168
2018-07-28T15:54:00.000Z,98166
2018-07-28T15:59:00.000Z,98156
2018-07-28T16:04:00.000Z,98138
2018-07-28T16:09:00.000Z,98144
2018-07-28T16:14:00.000Z,98143
2018-07-28T16:19:00.000Z,98130
2018-07-28T16:24:00.000Z,98145
2018-07-28T16:29:00.000Z,98144
2018-07-28T16:34:00.000Z,98144
2018-07-28T16:39:00.000Z,98146
2018-07-28T16:44:00.000Z,98150
2018-07-28T16:49:00.000Z,98147
2018-07-28T16:54:00.000Z,98152
2018-07-28T16:59:00.000Z,98144
2018-07-28T17:04:00.000Z,98162
2018-07-28T17:09:00.000Z,98167
2018-07-28T17:14:00.000Z,98168
2018-07-28T17:19:00.000Z,98177
2018-07-28T17:24:00.000Z,98172
2018-07-28T17:29:00.000Z,98175
2018-07-28T17:34:00.000Z,98187
2018-07-28T17:39:00.000Z,98196
2018-07-28T17:44:00.000Z,98208
2018-07-28T17:49:00.000Z,98210
2018-07-28T17:54:00.000Z,98210
2018-07-28T17:59:00.000Z,98204
2018-07-28T18:04:00.000Z,98208
2018-07-28T18:09:00.000Z,98218
2018-07-28T18:14:00.000Z,98225
2018-07-28T18:19:00.000Z,98237
2018-07-28T18:24:00.000Z,98239
2018-07-28T18:29:00.000Z,98235
2018-07-28T18:34:00.000Z,98245
2018-07-28T18:39:00.000Z,98266
2018-07-28T18:44:00.000Z,98277
2018-07-28T18:49:00.000Z,98281
2018-07-28T18:55:00.000Z,98298
2018-07-28T19:00:00.000Z,98300
2018-07-28T19:05:00.000Z,98310
2018-07-28T19:10:00.000Z,98321
2018-07-28T19:15:00.000Z,98322
2018-07-28T19:20:00.000Z,98330
2018-07-28T19:25:00.000Z,98340
2018-07-28T19:30:00.000Z,98352
2018-07-28T19:35:00.000Z,98350
2018-07-28T19:40:00.000Z,98361
2018-07-28T19:45:00.000Z,98354
2018-07-28T19:50:00.000Z,98362
2018-07-28T19:55:00.000Z,98363
2018-07-28T20:00:00.000Z,98362
2018-07-28T20:05:00.000Z,98364
2018-07-28T20:10:00.000Z,98357
2018-07-28T20:15:00.000Z,98356
2018-07-28T20:20:00.000Z,98350
2018-07-28T20:25:00.000Z,98363
2018-07-28T20:30:00.000Z,98358
2018-07-28T20:35:00.000Z,98356
2018-07-28T20:40:00.000Z,98361
2018-07-28T20:45:00.000Z,98359
2018-07-28T20:50:00.000Z,98354
2018-07-28T20:55:00.000Z,98350
2018-07-28T21:00:00.000Z,98353
2018-07-28T21:05:00.000Z,98348
2018-07-28T21:10:00.000Z,98357
2018-07-28T21:15:00.000Z,98349
2018-07-28T21:20:00.000Z,98357
2018-07-28T21:25:00.000Z,98356
2018-07-28T21:30:00.000Z,98351
2018-07-28T21:35:00.000Z,98352
2018-07-28T21:40:00.000Z,98353
2018-07-28T21:45:00.000Z,98361
2018-07-28T21:50:00.000Z,98363
2018-07-28T21:55:00.000Z,98365
2018-07-28T22:00:00.000Z,98374
2018-07-28T22:05:00.000Z,98385
2018-07-28T22:10:00.000Z,98373
2018-07-28T22:15:00.000Z,98370
2018-07-28T22:20:00.000Z,98375
2018-07-28T22:25:00.000Z,98374
2018-07-28T22:30:00.000Z,98370
2018-07-28T22:35:00.000Z,98381
2018-07-28T22:40:00.000Z,98386
2018-07-28T22:45:00.000Z,98393
2018-07-28T22:50:00.000Z,98389
2018-07-28T22:55:00.000Z,98392
2018-07-28T23:00:00.000Z,98388
2018-07-28T23:05:00.000Z,98393
2018-07-28T23:10:00.000Z,98389
2018-07-28T23:15:00.000Z,98386
2018-07-28T23:20:00.000Z,98389
2018-07-28T23:25:00.000Z,98383
2018-07-28T23:30:00.000Z,98378
2018-07-28T23:35:00.000Z,98381
2018-07-28T23:40:00.000Z,98382
2018-07-28T23:45:00.000Z,98388
2018-07-28T23:50:00.000Z,98379
2018-07-28T23:55:00.000Z,98391
